Montreal (YUL/CYUL)

Information

Location
Montreal, QB, Canada
Local Time
21:05 / 9:05 pm
GMT Time
01:05 / 1:05 am
Gates
77
No FAA reported delays
METAR CYUL 240000Z 23014KT 15SM FEW050 SCT070 BKN120 OVC240 20/14 A2976 RMK SC1AC2AC4CI1 SLP079 DENSITY ALT 900FT
TAF TAF CYUL 232343Z 2400/2424 25012KT P6SM SCT060 TEMPO 2400/2404 BKN060 FM240400 24010KT P6SM SCT020 BKN040 TEMPO 2404/2416 BKN020 FM241600 26010G20KT P6SM BKN040 FM241900 26010G20KT P6SM SCT050 BECMG 2422/2424 29008KT RMK NXT FCST BY 240300Z